createdAt,value
2023-05-25T00:01:49.450Z,8.10
2023-05-25T00:04:19.604Z,7.60
2023-05-25T00:06:47.756Z,8.13
2023-05-25T00:09:15.650Z,7.07
2023-05-25T00:11:42.962Z,7.35
2023-05-25T00:14:10.941Z,6.78
2023-05-25T00:16:40.863Z,7.15
2023-05-25T00:19:11.252Z,7.63
2023-05-25T00:21:38.671Z,8.07
2023-05-25T00:24:07.261Z,7.75
2023-05-25T00:26:36.192Z,6.82
2023-05-25T00:29:04.892Z,10.00
2023-05-25T00:31:33.543Z,9.55
2023-05-25T00:34:01.641Z,8.50
2023-05-25T00:36:28.991Z,8.48
2023-05-25T00:38:56.714Z,7.72
2023-05-25T00:41:27.276Z,8.82
2023-05-25T00:43:54.874Z,7.35
2023-05-25T00:46:23.664Z,6.90
2023-05-25T00:48:56.440Z,7.35
2023-05-25T00:51:25.728Z,6.50
2023-05-25T00:53:53.481Z,5.43
2023-05-25T00:56:29.114Z,5.55
2023-05-25T00:59:03.519Z,6.18
2023-05-25T01:01:53.981Z,6.40
2023-05-25T01:04:24.439Z,5.80
2023-05-25T01:06:53.611Z,6.20
2023-05-25T01:09:24.938Z,7.18
2023-05-25T01:11:54.117Z,6.88
2023-05-25T01:14:22.984Z,6.70
2023-05-25T01:16:51.997Z,6.53
2023-05-25T01:19:19.757Z,6.75
2023-05-25T01:22:03.866Z,4.57
2023-05-25T01:24:56.220Z,5.65
2023-05-25T01:27:40.054Z,5.53
2023-05-25T01:30:14.428Z,4.55
2023-05-25T01:32:43.724Z,5.75
2023-05-25T01:35:12.050Z,5.70
2023-05-25T01:37:46.975Z,6.20
2023-05-25T01:40:15.843Z,6.32
2023-05-25T01:42:43.185Z,6.20
2023-05-25T01:45:13.773Z,6.45
2023-05-25T01:47:46.895Z,6.10
2023-05-25T01:50:31.038Z,5.95
2023-05-25T01:53:10.991Z,6.78
2023-05-25T01:55:48.112Z,5.90
2023-05-25T01:58:18.237Z,6.10
2023-05-25T02:00:51.113Z,6.88
2023-05-25T02:03:20.196Z,6.28
2023-05-25T02:05:48.249Z,6.57
2023-05-25T02:08:15.726Z,7.05
2023-05-25T02:10:43.264Z,8.00
2023-05-25T02:13:10.581Z,7.07
2023-05-25T02:15:38.190Z,6.80
2023-05-25T02:18:05.948Z,7.28
2023-05-25T02:20:33.583Z,6.47
2023-05-25T02:23:01.285Z,6.28
2023-05-25T02:25:28.886Z,6.10
2023-05-25T02:27:56.257Z,6.78
2023-05-25T02:30:23.946Z,6.10
2023-05-25T02:32:51.283Z,7.80
2023-05-25T02:35:18.874Z,8.18
2023-05-25T02:37:47.300Z,7.38
2023-05-25T02:40:17.495Z,8.38
2023-05-25T02:42:44.989Z,7.63
2023-05-25T02:45:12.701Z,7.47
2023-05-25T02:47:40.140Z,7.63
2023-05-25T02:50:08.279Z,7.13
2023-05-25T02:52:35.655Z,7.90
2023-05-25T02:55:03.639Z,7.50
2023-05-25T02:57:31.052Z,7.30
2023-05-25T02:59:58.627Z,7.43
2023-05-25T03:02:26.116Z,6.88
2023-05-25T03:04:56.240Z,6.70
2023-05-25T03:07:26.685Z,6.85
2023-05-25T03:09:54.598Z,7.50
2023-05-25T03:12:21.999Z,6.65
2023-05-25T03:14:49.609Z,5.80
2023-05-25T03:17:17.015Z,6.85
2023-05-25T03:19:44.576Z,6.95
2023-05-25T03:22:11.876Z,7.22
2023-05-25T03:24:45.169Z,7.18
2023-05-25T03:27:12.515Z,6.53
2023-05-25T03:29:40.154Z,6.45
2023-05-25T03:32:08.142Z,7.43
2023-05-25T03:34:36.392Z,7.65
2023-05-25T03:37:03.660Z,13.65
2023-05-25T03:39:31.536Z,16.60
2023-05-25T03:41:58.875Z,13.15
2023-05-25T03:44:26.633Z,8.82
2023-05-25T03:46:53.884Z,7.45
2023-05-25T03:49:21.591Z,8.50
2023-05-25T03:51:48.835Z,7.47
2023-05-25T03:54:16.436Z,9.45
2023-05-25T03:59:28.501Z,10.98
2023-05-25T04:01:55.830Z,9.48
2023-05-25T04:04:23.544Z,9.60
2023-05-25T04:06:52.007Z,10.30
2023-05-25T04:09:19.928Z,11.25
2023-05-25T04:11:47.461Z,10.38
2023-05-25T04:14:15.159Z,10.15
2023-05-25T04:16:42.568Z,10.60
2023-05-25T04:19:10.271Z,10.68
2023-05-25T04:21:37.617Z,9.65
2023-05-25T04:24:05.631Z,15.10
2023-05-25T04:26:32.956Z,15.60
2023-05-25T04:29:02.184Z,25.58
2023-05-25T04:31:29.624Z,16.45
2023-05-25T04:33:59.232Z,20.58
2023-05-25T04:36:26.652Z,19.40
2023-05-25T04:38:55.461Z,14.27
2023-05-25T04:41:22.750Z,12.38
2023-05-25T04:44:05.915Z,11.23
2023-05-25T04:46:39.494Z,11.40
2023-05-25T04:49:08.743Z,9.57
2023-05-25T04:51:37.291Z,9.15
2023-05-25T04:54:06.100Z,9.45
2023-05-25T04:56:33.457Z,8.90
2023-05-25T04:59:01.009Z,8.95
2023-05-25T05:01:29.427Z,14.55
2023-05-25T05:03:57.275Z,13.38
2023-05-25T05:06:25.907Z,16.27
2023-05-25T05:08:53.540Z,12.43
2023-05-25T05:11:20.914Z,10.10
2023-05-25T05:13:48.451Z,9.32
2023-05-25T05:16:15.976Z,7.70
2023-05-25T05:18:43.886Z,8.50
2023-05-25T05:21:11.669Z,8.75
2023-05-25T05:23:39.318Z,9.10
2023-05-25T05:26:11.058Z,8.07
2023-05-25T05:28:38.888Z,9.40
2023-05-25T05:31:07.949Z,9.30
2023-05-25T05:33:35.789Z,7.93
2023-05-25T05:36:04.832Z,7.80
2023-05-25T05:38:32.476Z,7.88
2023-05-25T05:41:00.071Z,8.45
2023-05-25T05:43:27.860Z,7.85
2023-05-25T05:45:55.249Z,7.63
2023-05-25T05:48:22.851Z,8.38
2023-05-25T05:50:50.165Z,8.05
2023-05-25T05:53:17.711Z,8.10
2023-05-25T05:55:45.945Z,6.90
2023-05-25T05:58:14.744Z,6.95
2023-05-25T06:00:42.032Z,8.45
2023-05-25T06:03:10.029Z,9.70
2023-05-25T06:05:37.414Z,8.88
2023-05-25T06:08:06.229Z,9.15
2023-05-25T06:10:34.296Z,10.45
2023-05-25T06:13:01.912Z,11.48
2023-05-25T06:15:29.183Z,9.70
2023-05-25T06:17:56.854Z,9.73
2023-05-25T06:20:24.306Z,11.23
2023-05-25T06:22:52.067Z,9.20
2023-05-25T06:25:20.415Z,9.70
2023-05-25T06:27:47.977Z,9.75
2023-05-25T06:30:15.337Z,10.45
2023-05-25T06:32:43.649Z,10.05
2023-05-25T06:35:17.416Z,9.70
2023-05-25T06:37:46.486Z,12.93
2023-05-25T06:40:13.745Z,11.27
2023-05-25T06:42:42.222Z,10.68
2023-05-25T06:45:10.432Z,10.23
2023-05-25T06:47:38.311Z,10.00
2023-05-25T06:50:06.643Z,11.70
2023-05-25T06:52:34.208Z,12.63
2023-05-25T06:55:01.872Z,12.05
2023-05-25T06:57:29.570Z,11.80
2023-05-25T06:59:56.927Z,12.77
2023-05-25T07:02:24.512Z,11.38
2023-05-25T07:04:52.184Z,10.90
2023-05-25T07:07:20.039Z,11.85
2023-05-25T07:09:47.638Z,11.98
2023-05-25T07:12:15.284Z,10.57
2023-05-25T07:14:42.609Z,11.50
2023-05-25T07:17:12.571Z,10.85
2023-05-25T07:19:40.296Z,10.48
2023-05-25T07:22:07.989Z,13.23
2023-05-25T07:24:35.549Z,11.27
2023-05-25T07:27:03.671Z,10.95
2023-05-25T07:29:31.004Z,11.18
2023-05-25T07:31:58.592Z,11.98
2023-05-25T07:34:27.899Z,11.05
2023-05-25T07:36:55.836Z,12.43
2023-05-25T07:39:23.210Z,12.85
2023-05-25T07:41:50.985Z,13.93
2023-05-25T07:44:18.475Z,13.88
2023-05-25T07:46:46.407Z,13.80
2023-05-25T07:49:16.370Z,12.82
2023-05-25T07:51:45.868Z,12.25
2023-05-25T07:54:13.480Z,23.65
2023-05-25T07:56:41.082Z,21.80
2023-05-25T07:59:08.431Z,18.50
2023-05-25T08:01:36.240Z,13.23
2023-05-25T08:04:03.796Z,13.73
2023-05-25T08:06:32.682Z,13.57
2023-05-25T08:08:59.975Z,12.60
2023-05-25T08:11:27.868Z,12.82
2023-05-25T08:13:55.459Z,14.27
2023-05-25T08:16:23.295Z,12.65
2023-05-25T08:18:50.742Z,13.88
2023-05-25T08:21:18.901Z,13.43
2023-05-25T08:23:46.464Z,12.05
2023-05-25T08:26:34.152Z,12.65
2023-05-25T08:29:02.528Z,12.82
2023-05-25T08:31:32.972Z,12.52
2023-05-25T08:34:01.774Z,12.15
2023-05-25T08:36:30.029Z,13.35
2023-05-25T08:38:57.530Z,12.98
2023-05-25T08:41:26.089Z,13.23
2023-05-25T08:43:54.065Z,13.20
2023-05-25T08:46:31.504Z,13.63
2023-05-25T08:49:08.732Z,16.27
2023-05-25T08:51:41.689Z,16.65
2023-05-25T08:54:13.022Z,24.05
2023-05-25T08:57:13.181Z,22.30
2023-05-25T08:59:58.660Z,18.20
2023-05-25T09:02:51.423Z,16.80
2023-05-25T09:05:19.891Z,15.82
2023-05-25T09:07:50.029Z,15.82
2023-05-25T09:10:18.054Z,17.65
2023-05-25T09:12:46.754Z,19.98
2023-05-25T09:15:14.353Z,27.23
2023-05-25T09:17:42.206Z,19.17
2023-05-25T09:20:14.066Z,17.00
2023-05-25T09:22:42.522Z,17.98
2023-05-25T09:25:11.876Z,20.65
2023-05-25T09:27:39.784Z,17.90
2023-05-25T09:30:08.023Z,16.25
2023-05-25T09:32:36.486Z,14.55
2023-05-25T09:35:12.899Z,15.23
2023-05-25T09:37:44.768Z,19.05
2023-05-25T09:40:13.122Z,17.27
2023-05-25T09:42:42.399Z,19.08
2023-05-25T09:45:10.228Z,21.45
2023-05-25T09:47:38.496Z,18.70
2023-05-25T09:50:07.868Z,19.73
2023-05-25T09:52:36.826Z,19.88
2023-05-25T09:55:04.606Z,16.15
2023-05-25T09:57:32.220Z,13.82
2023-05-25T10:00:08.816Z,14.68
2023-05-25T10:02:37.572Z,13.40
2023-05-25T10:05:07.580Z,15.57
2023-05-25T10:07:40.401Z,14.63
2023-05-25T10:10:10.408Z,12.60
2023-05-25T10:12:54.140Z,13.25
2023-05-25T10:15:23.142Z,10.57
2023-05-25T10:17:55.879Z,12.80
2023-05-25T10:20:27.470Z,11.82
2023-05-25T10:23:17.590Z,12.23
2023-05-25T10:25:48.847Z,11.00
2023-05-25T10:28:37.525Z,11.48
2023-05-25T10:31:08.832Z,10.25
2023-05-25T10:33:37.692Z,11.55
2023-05-25T10:36:11.293Z,11.30
2023-05-25T10:38:44.703Z,10.27
2023-05-25T10:41:12.378Z,11.40
2023-05-25T10:43:41.391Z,10.27
2023-05-25T10:46:09.164Z,10.02
2023-05-25T10:48:48.522Z,10.63
2023-05-25T10:51:19.049Z,8.90
2023-05-25T10:53:59.072Z,9.60
2023-05-25T10:56:27.922Z,11.20
2023-05-25T10:58:56.945Z,12.65
2023-05-25T11:01:25.460Z,12.70
2023-05-25T11:04:16.245Z,12.48
2023-05-25T11:06:46.550Z,16.58
2023-05-25T11:09:31.775Z,19.13
2023-05-25T11:11:59.939Z,14.93
2023-05-25T11:14:30.407Z,14.57
2023-05-25T11:17:22.476Z,15.00
2023-05-25T11:19:56.451Z,13.77
2023-05-25T11:22:37.677Z,13.05
2023-05-25T11:25:43.018Z,14.02
2023-05-25T11:28:12.084Z,12.35
2023-05-25T11:30:43.190Z,12.43
2023-05-25T11:33:11.299Z,14.15
2023-05-25T11:35:39.098Z,10.63
2023-05-25T11:38:08.485Z,10.73
2023-05-25T11:40:39.324Z,10.88
2023-05-25T11:43:12.835Z,12.23
2023-05-25T11:45:41.594Z,13.07
2023-05-25T11:48:14.977Z,12.77
2023-05-25T11:50:42.647Z,13.35
2023-05-25T11:53:11.333Z,12.15
2023-05-25T11:55:52.097Z,11.63
2023-05-25T11:58:21.170Z,11.02
2023-05-25T12:00:48.768Z,11.05
2023-05-25T12:03:32.180Z,11.95
2023-05-25T12:05:59.982Z,11.52
2023-05-25T12:08:35.987Z,11.77
2023-05-25T12:11:04.089Z,12.02
2023-05-25T12:13:31.893Z,13.35
2023-05-25T12:16:00.485Z,12.23
2023-05-25T12:18:30.997Z,11.52
2023-05-25T12:20:58.847Z,12.40
2023-05-25T12:23:26.541Z,12.38
2023-05-25T12:26:12.460Z,10.82
2023-05-25T12:28:41.363Z,11.25
2023-05-25T12:31:30.241Z,12.27
2023-05-25T12:34:13.007Z,16.10
2023-05-25T12:36:40.701Z,22.85
2023-05-25T12:39:09.970Z,21.65
2023-05-25T12:41:47.893Z,22.60
2023-05-25T12:44:34.182Z,17.48
2023-05-25T12:47:16.208Z,14.70
2023-05-25T12:49:45.578Z,15.55
2023-05-25T12:52:37.415Z,13.15
2023-05-25T12:55:31.335Z,13.32
2023-05-25T12:58:07.029Z,14.13
2023-05-25T13:00:39.671Z,12.40
2023-05-25T13:03:08.448Z,12.82
2023-05-25T13:05:38.223Z,13.13
2023-05-25T13:08:07.934Z,13.13
2023-05-25T13:10:38.939Z,12.77
2023-05-25T13:13:06.747Z,11.02
2023-05-25T13:15:34.365Z,10.65
2023-05-25T13:18:02.132Z,10.40
2023-05-25T13:20:30.740Z,10.30
2023-05-25T13:22:58.934Z,13.25
2023-05-25T13:25:28.250Z,11.05
2023-05-25T13:27:58.284Z,11.70
2023-05-25T13:30:26.481Z,12.38
2023-05-25T13:32:54.470Z,17.23
2023-05-25T13:35:41.814Z,15.40
2023-05-25T13:38:10.720Z,13.35
2023-05-25T13:40:38.282Z,12.60
2023-05-25T13:43:06.204Z,11.30
2023-05-25T13:45:33.647Z,12.30
2023-05-25T13:48:01.388Z,11.50
2023-05-25T13:50:28.800Z,12.57
2023-05-25T13:52:57.052Z,11.73
2023-05-25T13:55:24.730Z,13.43
2023-05-25T13:57:52.375Z,12.10
2023-05-25T14:00:20.102Z,11.10
2023-05-25T14:02:48.106Z,12.90
2023-05-25T14:05:15.547Z,11.98
2023-05-25T14:07:44.626Z,16.15
2023-05-25T14:10:12.162Z,18.48
2023-05-25T14:12:41.166Z,19.20
2023-05-25T14:15:09.433Z,14.23
2023-05-25T14:17:37.156Z,12.07
2023-05-25T14:20:05.351Z,11.32
2023-05-25T14:22:33.836Z,12.07
2023-05-25T14:25:01.226Z,10.30
2023-05-25T14:27:28.978Z,8.90
2023-05-25T14:29:56.308Z,9.88
2023-05-25T14:32:24.115Z,10.85
2023-05-25T14:34:51.496Z,11.75
2023-05-25T14:37:19.331Z,10.93
2023-05-25T14:39:46.602Z,12.38
2023-05-25T14:42:14.366Z,13.23
2023-05-25T14:44:41.626Z,14.40
2023-05-25T14:47:09.507Z,15.50
2023-05-25T14:49:36.936Z,26.70
2023-05-25T14:52:04.707Z,24.58
2023-05-25T14:54:32.186Z,15.23
2023-05-25T14:56:59.762Z,13.52
2023-05-25T14:59:27.072Z,14.32
2023-05-25T15:01:54.843Z,14.07
2023-05-25T15:04:22.408Z,13.65
2023-05-25T15:06:50.156Z,13.35
2023-05-25T15:09:19.469Z,12.80
2023-05-25T15:11:47.205Z,13.30
2023-05-25T15:14:14.877Z,12.82
2023-05-25T15:16:43.543Z,12.07
2023-05-25T15:19:13.311Z,12.80
2023-05-25T15:21:42.904Z,13.18
2023-05-25T15:24:10.848Z,11.73
2023-05-25T15:26:38.604Z,13.35
2023-05-25T15:29:05.980Z,13.60
2023-05-25T15:31:33.742Z,12.18
2023-05-25T15:34:01.170Z,15.30
2023-05-25T15:36:28.874Z,17.80
2023-05-25T15:38:56.280Z,21.70
2023-05-25T15:41:23.958Z,19.83
2023-05-25T15:43:58.091Z,18.63
2023-05-25T15:46:26.341Z,17.67
2023-05-25T15:48:54.594Z,22.30
2023-05-25T15:51:23.375Z,18.85
2023-05-25T15:53:50.941Z,17.85
2023-05-25T15:56:18.553Z,29.45
2023-05-25T15:58:49.014Z,26.38
2023-05-25T16:01:16.888Z,18.42
2023-05-25T16:03:50.787Z,16.08
2023-05-25T16:06:18.339Z,23.60
2023-05-25T16:08:46.070Z,24.58
2023-05-25T16:11:13.702Z,19.08
2023-05-25T16:13:41.090Z,19.73
2023-05-25T16:16:09.764Z,16.77
2023-05-25T16:18:37.221Z,19.80
2023-05-25T16:21:05.165Z,17.83
2023-05-25T16:23:32.454Z,17.02
2023-05-25T16:26:00.149Z,16.38
2023-05-25T16:28:27.578Z,16.10
2023-05-25T16:30:55.920Z,15.18
2023-05-25T16:33:23.392Z,14.48
2023-05-25T16:35:53.748Z,28.33
2023-05-25T16:38:21.058Z,18.85
2023-05-25T16:40:48.640Z,13.55
2023-05-25T16:43:15.991Z,11.45
2023-05-25T16:45:44.030Z,12.15
2023-05-25T16:48:11.579Z,13.70
2023-05-25T16:50:39.306Z,11.23
2023-05-25T16:53:06.905Z,12.10
2023-05-25T16:55:34.552Z,13.65
2023-05-25T16:58:01.841Z,13.25
2023-05-25T17:00:29.450Z,12.80
2023-05-25T17:02:56.933Z,12.35
2023-05-25T17:05:24.749Z,13.82
2023-05-25T17:07:52.167Z,14.82
2023-05-25T17:10:19.901Z,16.75
2023-05-25T17:12:47.265Z,15.55
2023-05-25T17:15:16.320Z,18.05
2023-05-25T17:17:44.189Z,15.32
2023-05-25T17:20:12.112Z,18.75
2023-05-25T17:22:39.589Z,15.00
2023-05-25T17:25:11.764Z,16.05
2023-05-25T17:27:39.176Z,14.10
2023-05-25T17:30:07.824Z,12.98
2023-05-25T17:32:35.168Z,12.93
2023-05-25T17:35:04.249Z,13.98
2023-05-25T17:37:31.507Z,14.05
2023-05-25T17:39:59.499Z,13.68
2023-05-25T17:42:27.071Z,12.82
2023-05-25T17:44:54.735Z,14.70
2023-05-25T17:47:22.585Z,11.55
2023-05-25T17:49:50.589Z,11.65
2023-05-25T17:52:18.025Z,9.43
2023-05-25T17:54:45.868Z,13.85
2023-05-25T17:57:13.361Z,11.82
2023-05-25T17:59:41.671Z,10.88
2023-05-25T18:02:09.859Z,11.90
2023-05-25T18:04:37.604Z,12.55
2023-05-25T18:07:05.208Z,12.95
2023-05-25T18:09:32.925Z,14.63
2023-05-25T18:12:01.138Z,13.88
2023-05-25T18:14:32.096Z,13.15
2023-05-25T18:16:59.490Z,13.68
2023-05-25T18:19:27.129Z,12.65
2023-05-25T18:21:54.449Z,13.15
2023-05-25T18:24:22.016Z,15.45
2023-05-25T18:26:49.528Z,15.07
2023-05-25T18:29:17.294Z,14.40
2023-05-25T18:31:48.814Z,14.98
2023-05-25T18:34:16.811Z,16.40
2023-05-25T18:36:44.178Z,14.60
2023-05-25T18:39:12.286Z,16.23
2023-05-25T18:41:39.895Z,15.23
2023-05-25T18:44:08.165Z,17.20
2023-05-25T18:46:37.584Z,17.40
2023-05-25T18:49:05.410Z,18.88
2023-05-25T18:51:34.040Z,16.48
2023-05-25T18:54:01.737Z,15.95
2023-05-25T18:56:29.124Z,17.00
2023-05-25T18:58:57.200Z,16.58
2023-05-25T19:01:27.945Z,17.98
2023-05-25T19:03:58.325Z,16.58
2023-05-25T19:06:27.398Z,17.35
2023-05-25T19:08:55.467Z,17.30
2023-05-25T19:11:22.848Z,16.83
2023-05-25T19:13:50.545Z,19.48
2023-05-25T19:16:18.092Z,18.42
2023-05-25T19:18:45.747Z,17.13
2023-05-25T19:21:13.712Z,18.27
2023-05-25T19:23:41.892Z,17.10
2023-05-25T19:26:09.395Z,19.05
2023-05-25T19:28:37.093Z,19.40
2023-05-25T19:31:04.599Z,20.08
2023-05-25T19:33:32.254Z,15.18
2023-05-25T19:35:59.655Z,16.85
2023-05-25T19:38:34.212Z,15.32
2023-05-25T19:41:08.165Z,16.00
2023-05-25T19:43:36.301Z,16.98
2023-05-25T19:46:04.184Z,16.75
2023-05-25T19:48:31.920Z,15.23
2023-05-25T19:51:01.031Z,15.88
2023-05-25T19:53:30.091Z,16.33
2023-05-25T19:55:57.799Z,15.70
2023-05-25T19:58:25.350Z,15.57
2023-05-25T20:00:53.006Z,17.25
2023-05-25T20:03:21.186Z,16.80
2023-05-25T20:05:48.697Z,16.85
2023-05-25T20:08:16.355Z,16.45
2023-05-25T20:10:45.192Z,16.90
2023-05-25T20:13:12.869Z,18.33
2023-05-25T20:15:40.244Z,18.25
2023-05-25T20:18:07.965Z,16.95
2023-05-25T20:20:35.738Z,15.30
2023-05-25T20:23:03.543Z,16.85
2023-05-25T20:25:30.928Z,17.88
2023-05-25T20:27:58.525Z,16.80
2023-05-25T20:30:25.829Z,17.50
2023-05-25T20:32:53.666Z,17.92
2023-05-25T20:35:21.007Z,17.20
2023-05-25T20:37:48.677Z,16.75
2023-05-25T20:40:16.041Z,20.35
2023-05-25T20:42:43.748Z,17.95
2023-05-25T20:45:11.119Z,18.52
2023-05-25T20:47:41.601Z,16.58
2023-05-25T20:50:09.320Z,15.73
2023-05-25T20:52:37.001Z,18.95
2023-05-25T20:55:04.797Z,16.60
2023-05-25T20:57:32.696Z,25.35
2023-05-25T21:00:00.063Z,18.58
2023-05-25T21:02:28.882Z,18.52
2023-05-25T21:04:56.540Z,18.10
2023-05-25T21:07:24.156Z,16.40
2023-05-25T21:09:51.667Z,16.95
2023-05-25T21:12:19.455Z,18.85
2023-05-25T21:14:46.843Z,17.23
2023-05-25T21:17:15.048Z,18.92
2023-05-25T21:19:42.424Z,17.50
2023-05-25T21:22:11.437Z,19.15
2023-05-25T21:24:39.144Z,21.13
2023-05-25T21:27:06.899Z,17.85
2023-05-25T21:29:34.226Z,18.98
2023-05-25T21:32:01.943Z,19.45
2023-05-25T21:34:29.341Z,17.75
2023-05-25T21:36:57.423Z,17.50
2023-05-25T21:39:25.156Z,16.13
2023-05-25T21:41:53.707Z,17.30
2023-05-25T21:44:22.945Z,16.30
2023-05-25T21:46:50.672Z,16.58
2023-05-25T21:49:18.128Z,15.98
2023-05-25T21:51:45.791Z,18.02
2023-05-25T21:54:13.189Z,20.20
2023-05-25T21:56:40.915Z,20.73
2023-05-25T21:59:08.153Z,20.90
2023-05-25T22:01:35.913Z,19.10
2023-05-25T22:04:03.392Z,19.75
2023-05-25T22:06:31.032Z,20.08
2023-05-25T22:08:59.104Z,19.27
2023-05-25T22:11:26.828Z,17.55
2023-05-25T22:13:54.173Z,18.17
2023-05-25T22:16:22.073Z,19.15
2023-05-25T22:18:49.612Z,19.73
2023-05-25T22:21:17.944Z,19.58
2023-05-25T22:23:45.271Z,18.95
2023-05-25T22:26:12.823Z,19.83
2023-05-25T22:28:40.219Z,22.05
2023-05-25T22:31:07.957Z,22.30
2023-05-25T22:33:35.420Z,21.92
2023-05-25T22:36:03.098Z,21.70
2023-05-25T22:38:31.727Z,23.67
2023-05-25T22:40:59.317Z,23.20
2023-05-25T22:43:27.161Z,24.65
2023-05-25T22:45:54.812Z,21.55
2023-05-25T22:48:22.111Z,19.85
2023-05-25T22:50:50.020Z,21.83
2023-05-25T22:53:17.467Z,21.73
2023-05-25T22:55:47.272Z,24.77
2023-05-25T22:58:14.933Z,24.85
2023-05-25T23:00:42.622Z,22.48
2023-05-25T23:03:10.152Z,23.08
2023-05-25T23:05:37.975Z,24.02
2023-05-25T23:08:05.383Z,24.05
2023-05-25T23:10:32.954Z,22.50
2023-05-25T23:13:00.605Z,23.10
2023-05-25T23:15:28.629Z,23.77
2023-05-25T23:17:56.330Z,23.33
2023-05-25T23:20:24.071Z,23.73
2023-05-25T23:22:51.474Z,23.02
2023-05-25T23:25:19.253Z,23.33
2023-05-25T23:27:46.935Z,21.83
2023-05-25T23:30:15.437Z,23.80
2023-05-25T23:32:44.041Z,24.20
2023-05-25T23:35:11.760Z,24.52
2023-05-25T23:37:39.170Z,25.77
2023-05-25T23:40:08.169Z,21.88
2023-05-25T23:42:40.197Z,25.45
2023-05-25T23:45:08.783Z,24.80
2023-05-25T23:47:36.305Z,23.50
2023-05-25T23:50:04.377Z,22.02
2023-05-25T23:52:31.614Z,24.05
2023-05-25T23:54:59.347Z,22.27
2023-05-25T23:57:26.636Z,25.23
2023-05-25T23:59:54.265Z,23.67
